Terminal Aerodrome Forecast
Issued by NWS

Home | Current Version | Previous Version | Text Only | Print | Product List | Glossary On
Versions: 1 2 3 4 5 6 7 8 9 10 11 12 13 14 15 16 17 18 19 20 21 22 23 24 25 26 27 28 29
000
FTUS45 KBOI 231229 AAA
TAFBKE
TAF AMD
KBKE 231229Z 2312/2412 VRB05KT 1SM BR SCT100
     FM231400 VRB05KT P6SM SCT100
     FM232100 15013KT P6SM SCT100 BKN150
     FM240000 33015G25KT P6SM VCSH SCT090 BKN120
     FM240600 33010KT P6SM FEW150=

USA.gov is the U.S. government's official web portal to all federal, state and local government web resources and services.